createdAt,value
2022-08-12T00:01:11.671Z,16.47
2022-08-12T00:04:00.758Z,16.40
2022-08-12T00:06:47.103Z,16.33
2022-08-12T00:09:32.147Z,16.28
2022-08-12T00:12:17.753Z,16.23
2022-08-12T00:15:06.171Z,16.19
2022-08-12T00:17:51.862Z,16.15
2022-08-12T00:20:38.577Z,16.11
2022-08-12T00:23:23.774Z,16.08
2022-08-12T00:26:22.649Z,16.05
2022-08-12T00:29:11.720Z,16.01
2022-08-12T00:32:00.431Z,15.98
2022-08-12T00:34:49.617Z,15.95
2022-08-12T00:37:38.958Z,15.93
2022-08-12T00:40:28.027Z,15.90
2022-08-12T00:42:56.101Z,15.87
2022-08-12T00:45:22.562Z,15.84
2022-08-12T00:47:52.127Z,15.83
2022-08-12T00:50:20.732Z,15.81
2022-08-12T00:52:50.378Z,15.81
2022-08-12T00:55:19.636Z,15.78
2022-08-12T00:57:49.868Z,15.76
2022-08-12T01:00:23.078Z,15.73
2022-08-12T01:02:52.846Z,15.67
2022-08-12T01:05:41.030Z,15.62
2022-08-12T01:08:47.381Z,15.58
2022-08-12T01:11:34.153Z,15.52
2022-08-12T01:14:01.772Z,15.46
2022-08-12T01:16:28.533Z,15.42
2022-08-12T01:18:58.337Z,15.39
2022-08-12T01:21:27.606Z,15.35
2022-08-12T01:24:47.305Z,15.31
2022-08-12T01:27:15.390Z,15.26
2022-08-12T01:29:43.456Z,15.25
2022-08-12T01:32:17.954Z,15.24
2022-08-12T01:35:13.647Z,15.22
2022-08-12T01:37:54.955Z,15.21
2022-08-12T01:40:35.557Z,15.18
2022-08-12T01:43:10.247Z,15.15
2022-08-12T01:45:49.075Z,15.12
2022-08-12T01:48:28.528Z,15.08
2022-08-12T01:51:40.729Z,15.03
2022-08-12T01:54:13.445Z,14.98
2022-08-12T01:57:03.595Z,14.94
2022-08-12T01:59:45.866Z,14.92
2022-08-12T02:02:17.188Z,14.87
2022-08-12T02:05:10.584Z,14.86
2022-08-12T02:08:22.763Z,14.84
2022-08-12T02:11:25.373Z,14.83
2022-08-12T02:13:59.576Z,14.82
2022-08-12T02:16:41.177Z,14.80
2022-08-12T02:19:23.185Z,14.79
2022-08-12T02:22:21.543Z,14.79
2022-08-12T02:24:50.363Z,14.78
2022-08-12T02:27:19.070Z,14.78
2022-08-12T02:29:45.654Z,14.80
2022-08-12T02:32:14.019Z,14.83
2022-08-12T02:34:43.436Z,14.85
2022-08-12T02:37:14.958Z,14.87
2022-08-12T02:39:49.179Z,14.87
2022-08-12T02:42:20.041Z,14.89
2022-08-12T02:44:52.775Z,14.91
2022-08-12T02:48:00.279Z,14.92
2022-08-12T02:50:10.623Z,14.94
2022-08-12T02:52:37.282Z,14.96
2022-08-12T02:55:28.601Z,14.98
2022-08-12T02:58:12.373Z,15.01
2022-08-12T03:00:43.253Z,15.04
2022-08-12T03:03:13.229Z,15.07
2022-08-12T03:05:57.971Z,15.08
2022-08-12T03:08:32.689Z,15.09
2022-08-12T03:11:19.128Z,15.11
2022-08-12T03:13:51.151Z,15.11
2022-08-12T03:16:20.215Z,15.13
2022-08-12T03:18:48.656Z,15.15
2022-08-12T03:21:17.083Z,15.18
2022-08-12T03:23:45.526Z,15.20
2022-08-12T03:26:12.737Z,15.22
2022-08-12T03:28:50.458Z,15.23
2022-08-12T03:31:20.099Z,15.24
2022-08-12T03:34:02.241Z,15.25
2022-08-12T03:36:34.315Z,15.26
2022-08-12T03:39:16.744Z,15.27
2022-08-12T03:41:58.627Z,15.29
2022-08-12T03:45:00.354Z,15.30
2022-08-12T03:48:09.124Z,15.32
2022-08-12T03:50:56.065Z,15.32
2022-08-12T03:53:49.546Z,15.33
2022-08-12T03:56:35.505Z,15.35
2022-08-12T03:59:24.392Z,15.35
2022-08-12T04:01:56.643Z,15.38
2022-08-12T04:04:33.528Z,15.41
2022-08-12T04:07:08.404Z,15.46
2022-08-12T04:09:41.055Z,15.55
2022-08-12T04:12:32.254Z,15.65
2022-08-12T04:15:01.318Z,15.78
2022-08-12T04:17:28.724Z,15.94
2022-08-12T04:19:57.316Z,16.16
2022-08-12T04:22:29.998Z,16.39
2022-08-12T04:25:01.892Z,16.54
2022-08-12T04:27:30.789Z,16.65
2022-08-12T04:30:16.475Z,16.73
2022-08-12T04:32:52.036Z,16.75
2022-08-12T04:35:20.193Z,16.82
2022-08-12T04:37:59.045Z,16.89
2022-08-12T04:40:32.887Z,16.91
2022-08-12T04:43:00.560Z,16.90
2022-08-12T04:45:27.167Z,16.94
2022-08-12T04:47:54.445Z,17.06
2022-08-12T04:50:34.912Z,17.21
2022-08-12T04:53:05.416Z,17.37
2022-08-12T04:55:32.938Z,17.63
2022-08-12T04:58:00.096Z,18.07
2022-08-12T05:00:27.190Z,18.56
2022-08-12T05:02:53.783Z,19.03
2022-08-12T05:05:23.244Z,19.45
2022-08-12T05:07:54.430Z,19.86
2022-08-12T05:10:33.758Z,20.37
2022-08-12T05:13:07.258Z,20.86
2022-08-12T05:15:37.863Z,21.28
2022-08-12T05:18:24.368Z,21.68
2022-08-12T05:20:51.508Z,21.94
2022-08-12T05:23:20.612Z,22.26
2022-08-12T05:25:50.178Z,22.50
2022-08-12T05:28:17.724Z,22.76
2022-08-12T05:30:45.286Z,23.10
2022-08-12T05:33:12.818Z,23.21
2022-08-12T05:35:44.297Z,23.39
2022-08-12T05:38:36.125Z,23.27
2022-08-12T05:41:05.514Z,23.27
2022-08-12T05:43:35.127Z,23.24
2022-08-12T05:46:04.778Z,23.03
2022-08-12T05:48:32.046Z,23.30
2022-08-12T05:50:58.494Z,23.45
2022-08-12T05:53:26.065Z,23.43
2022-08-12T05:55:53.251Z,23.33
2022-08-12T05:58:20.619Z,23.36
2022-08-12T06:00:47.433Z,23.05
2022-08-12T06:03:17.129Z,22.83
2022-08-12T06:05:55.135Z,22.83
2022-08-12T06:08:24.525Z,22.91
2022-08-12T06:10:51.657Z,23.06
2022-08-12T06:13:28.442Z,23.13
2022-08-12T06:16:07.082Z,23.24
2022-08-12T06:18:33.937Z,23.52
2022-08-12T06:21:02.413Z,23.82
2022-08-12T06:23:30.055Z,24.13
2022-08-12T06:25:58.131Z,24.35
2022-08-12T06:28:25.240Z,24.61
2022-08-12T06:31:22.119Z,24.87
2022-08-12T06:33:56.063Z,25.13
2022-08-12T06:36:33.527Z,25.38
2022-08-12T06:39:00.853Z,25.30
2022-08-12T06:42:28.547Z,25.08
2022-08-12T06:44:32.880Z,25.05
2022-08-12T06:46:59.672Z,25.22
2022-08-12T06:49:27.736Z,25.21
2022-08-12T06:51:56.163Z,25.13
2022-08-12T06:54:30.851Z,25.03
2022-08-12T06:57:05.395Z,25.00
2022-08-12T06:59:46.629Z,24.92
2022-08-12T07:02:13.615Z,24.76
2022-08-12T07:04:42.511Z,24.56
2022-08-12T07:07:11.087Z,24.30
2022-08-12T07:10:02.815Z,24.14
2022-08-12T07:12:31.783Z,24.18
2022-08-12T07:15:00.789Z,24.24
2022-08-12T07:17:36.981Z,24.23
2022-08-12T07:20:29.575Z,24.08
2022-08-12T07:22:59.028Z,23.87
2022-08-12T07:25:40.312Z,23.79
2022-08-12T07:28:16.945Z,23.69
2022-08-12T07:30:46.342Z,23.78
2022-08-12T07:33:12.948Z,24.01
2022-08-12T07:35:47.272Z,24.20
2022-08-12T07:38:29.587Z,24.23
2022-08-12T07:41:05.656Z,24.23
2022-08-12T07:43:36.181Z,24.03
2022-08-12T07:46:10.502Z,23.76
2022-08-12T07:48:40.558Z,23.80
2022-08-12T07:51:09.143Z,23.93
2022-08-12T07:53:47.763Z,23.96
2022-08-12T07:56:23.286Z,24.08
2022-08-12T07:58:49.820Z,24.20
2022-08-12T08:01:20.712Z,24.25
2022-08-12T08:04:09.393Z,24.19
2022-08-12T08:06:40.286Z,24.11
2022-08-12T08:09:06.894Z,24.10
2022-08-12T08:11:52.404Z,24.16
2022-08-12T08:14:20.589Z,24.26
2022-08-12T08:16:50.408Z,24.22
2022-08-12T08:19:22.978Z,24.18
2022-08-12T08:21:50.808Z,24.28
2022-08-12T08:24:17.891Z,24.34
2022-08-12T08:26:51.140Z,24.37
2022-08-12T08:29:18.829Z,24.44
2022-08-12T08:31:46.301Z,24.51
2022-08-12T08:34:40.244Z,24.59
2022-08-12T08:36:59.986Z,24.66
2022-08-12T08:39:31.346Z,24.71
2022-08-12T08:42:20.203Z,24.74
2022-08-12T08:44:49.776Z,24.78
2022-08-12T08:47:25.055Z,24.91
2022-08-12T08:49:51.899Z,24.99
2022-08-12T08:52:39.458Z,25.10
2022-08-12T08:55:09.421Z,25.34
2022-08-12T08:57:43.611Z,25.48
2022-08-12T09:00:15.757Z,25.50
2022-08-12T09:02:49.587Z,25.53
2022-08-12T09:05:43.096Z,25.59
2022-08-12T09:08:22.389Z,25.56
2022-08-12T09:11:00.159Z,25.54
2022-08-12T09:14:12.447Z,25.79
2022-08-12T09:16:20.859Z,25.96
2022-08-12T09:18:52.170Z,26.01
2022-08-12T09:21:21.121Z,26.21
2022-08-12T09:26:46.352Z,26.64
2022-08-12T09:30:11.878Z,26.84
2022-08-12T09:32:10.663Z,27.04
2022-08-12T09:34:56.786Z,27.10
2022-08-12T09:37:26.029Z,27.22
2022-08-12T09:40:04.394Z,27.36
2022-08-12T09:43:16.072Z,27.43
2022-08-12T09:46:11.585Z,27.39
2022-08-12T09:48:36.760Z,27.39
2022-08-12T09:51:17.163Z,27.34
2022-08-12T09:54:05.970Z,27.24
2022-08-12T09:56:59.995Z,27.20
2022-08-12T10:00:17.240Z,27.25
2022-08-12T10:02:53.159Z,27.34
2022-08-12T10:04:59.981Z,27.48
2022-08-12T10:07:40.082Z,27.63
2022-08-12T10:10:22.889Z,27.83
2022-08-12T10:13:34.937Z,28.06
2022-08-12T10:16:06.074Z,28.08
2022-08-12T10:18:37.188Z,28.03
2022-08-12T10:21:40.890Z,28.21
2022-08-12T10:24:34.814Z,28.23
2022-08-12T10:27:20.391Z,28.04
2022-08-12T10:30:38.700Z,28.11
2022-08-12T10:32:42.954Z,28.25
2022-08-12T10:35:14.707Z,28.38
2022-08-12T10:38:37.601Z,28.34
2022-08-12T10:40:33.802Z,28.38
2022-08-12T10:43:19.732Z,28.50
2022-08-12T10:45:51.253Z,28.67
2022-08-12T10:48:33.397Z,28.81
2022-08-12T10:52:03.018Z,28.97
2022-08-12T10:53:53.739Z,29.14
2022-08-12T10:56:26.575Z,29.15
2022-08-12T10:59:00.956Z,28.92
2022-08-12T11:04:31.395Z,28.71
2022-08-12T11:04:41.465Z,28.59
2022-08-12T11:08:35.125Z,28.60
2022-08-12T11:10:01.698Z,28.60
2022-08-12T11:12:55.019Z,28.65
2022-08-12T11:15:21.255Z,28.75
2022-08-12T11:17:53.817Z,28.89
2022-08-12T11:20:24.341Z,28.82
2022-08-12T11:23:03.909Z,28.60
2022-08-12T11:25:56.798Z,28.46
2022-08-12T11:28:33.452Z,28.49
2022-08-12T11:31:02.720Z,28.53
2022-08-12T11:34:04.730Z,28.58
2022-08-12T11:36:17.629Z,28.63
2022-08-12T11:38:50.575Z,28.66
2022-08-12T11:41:30.943Z,28.75
2022-08-12T11:44:35.511Z,28.73
2022-08-12T11:46:53.544Z,28.57
2022-08-12T11:49:31.993Z,28.48
2022-08-12T11:52:03.418Z,28.42
2022-08-12T11:54:31.348Z,28.33
2022-08-12T11:57:02.940Z,28.35
2022-08-12T12:02:41.946Z,28.66
2022-08-12T12:05:11.332Z,28.78
2022-08-12T12:08:37.914Z,28.82
2022-08-12T12:10:27.737Z,28.87
2022-08-12T12:12:54.878Z,28.92
2022-08-12T12:15:25.149Z,28.89
2022-08-12T12:18:30.950Z,28.78
2022-08-12T12:21:00.488Z,28.83
2022-08-12T12:23:29.526Z,28.89
2022-08-12T12:26:07.080Z,28.83
2022-08-12T12:28:37.662Z,28.83
2022-08-12T12:31:14.671Z,28.90
2022-08-12T12:33:58.009Z,29.01
2022-08-12T12:36:30.020Z,29.01
2022-08-12T12:38:58.019Z,29.01
2022-08-12T12:42:41.507Z,29.00
2022-08-12T12:44:25.958Z,28.99
2022-08-12T12:47:29.230Z,29.04
2022-08-12T12:49:54.992Z,29.02
2022-08-12T12:52:21.570Z,28.87
2022-08-12T12:54:56.907Z,28.70
2022-08-12T12:57:36.180Z,28.71
2022-08-12T13:00:18.300Z,28.69
2022-08-12T13:02:55.137Z,28.65
2022-08-12T13:05:42.100Z,28.80
2022-08-12T13:08:28.566Z,28.97
2022-08-12T13:11:04.994Z,29.11
2022-08-12T13:14:11.760Z,29.16
2022-08-12T13:16:28.729Z,29.04
2022-08-12T13:18:57.284Z,28.82
2022-08-12T13:21:32.749Z,28.74
2022-08-12T13:24:02.715Z,28.58
2022-08-12T13:26:39.783Z,28.54
2022-08-12T13:29:11.272Z,28.65
2022-08-12T13:31:46.417Z,28.83
2022-08-12T13:34:34.941Z,29.00
2022-08-12T13:37:04.482Z,29.16
2022-08-12T13:39:39.186Z,29.31
2022-08-12T13:42:13.855Z,29.36
2022-08-12T13:44:43.264Z,29.31
2022-08-12T13:47:20.068Z,29.21
2022-08-12T13:49:54.729Z,29.14
2022-08-12T13:52:23.914Z,29.04
2022-08-12T13:54:56.118Z,28.98
2022-08-12T13:57:25.720Z,28.95
2022-08-12T14:00:00.491Z,28.99
2022-08-12T14:02:28.205Z,29.10
2022-08-12T14:04:57.053Z,29.22
2022-08-12T14:07:25.839Z,29.36
2022-08-12T14:10:11.706Z,29.44
2022-08-12T14:12:39.620Z,29.51
2022-08-12T14:15:36.564Z,29.32
2022-08-12T14:18:18.446Z,29.04
2022-08-12T14:20:48.520Z,28.69
2022-08-12T14:24:04.879Z,28.33
2022-08-12T14:26:11.817Z,27.88
2022-08-12T14:28:45.384Z,27.62
2022-08-12T14:31:29.619Z,27.49
2022-08-12T14:34:00.225Z,27.49
2022-08-12T14:36:33.206Z,27.39
2022-08-12T14:39:05.472Z,27.41
2022-08-12T14:41:37.103Z,27.56
2022-08-12T14:44:57.746Z,27.74
2022-08-12T14:47:07.481Z,27.89
2022-08-12T14:50:37.063Z,27.96
2022-08-12T14:53:24.000Z,27.91
2022-08-12T14:57:58.050Z,27.74
2022-08-12T15:00:52.528Z,27.75
2022-08-12T15:03:27.266Z,27.73
2022-08-12T15:06:39.824Z,27.61
2022-08-12T15:09:01.555Z,27.51
2022-08-12T15:11:54.610Z,27.49
2022-08-12T15:14:14.541Z,27.62
2022-08-12T15:16:41.307Z,27.64
2022-08-12T15:20:11.205Z,27.54
2022-08-12T15:22:39.509Z,27.51
2022-08-12T15:24:42.052Z,27.52
2022-08-12T15:27:09.534Z,27.57
2022-08-12T15:29:38.054Z,27.62
2022-08-12T15:32:15.792Z,27.54
2022-08-12T15:34:42.545Z,27.44
2022-08-12T15:37:09.393Z,27.44
2022-08-12T15:39:36.250Z,27.32
2022-08-12T15:42:03.135Z,27.29
2022-08-12T15:44:38.551Z,27.29
2022-08-12T15:47:09.364Z,27.25
2022-08-12T15:49:54.593Z,27.17
2022-08-12T15:52:28.250Z,27.14
2022-08-12T15:54:58.876Z,27.14
2022-08-12T15:57:33.405Z,27.16
2022-08-12T16:00:07.467Z,27.17
2022-08-12T16:02:40.778Z,27.16
2022-08-12T16:06:10.380Z,27.18
2022-08-12T16:08:02.995Z,27.26
2022-08-12T16:10:30.939Z,27.29
2022-08-12T16:13:04.125Z,27.26
2022-08-12T16:15:35.589Z,27.21
2022-08-12T16:18:15.116Z,27.18
2022-08-12T16:20:47.477Z,27.23
2022-08-12T16:23:36.597Z,27.21
2022-08-12T16:26:14.563Z,27.21
2022-08-12T16:28:47.344Z,27.22
2022-08-12T16:31:22.830Z,27.19
2022-08-12T16:33:58.884Z,27.20
2022-08-12T16:36:30.685Z,27.18
2022-08-12T16:39:01.219Z,27.13
2022-08-12T16:41:39.747Z,27.05
2022-08-12T16:44:09.736Z,27.02
2022-08-12T16:46:37.810Z,26.96
2022-08-12T16:49:13.437Z,26.95
2022-08-12T16:51:46.673Z,26.93
2022-08-12T16:54:19.183Z,26.89
2022-08-12T16:56:55.507Z,26.78
2022-08-12T16:59:26.191Z,26.70
2022-08-12T17:01:57.951Z,26.63
2022-08-12T17:04:26.055Z,26.58
2022-08-12T17:06:52.893Z,26.55
2022-08-12T17:09:20.081Z,26.51
2022-08-12T17:11:49.251Z,26.47
2022-08-12T17:14:17.458Z,26.43
2022-08-12T17:16:54.565Z,26.40
2022-08-12T17:20:05.505Z,26.30
2022-08-12T17:22:14.486Z,26.17
2022-08-12T17:24:54.636Z,26.04
2022-08-12T17:27:26.348Z,25.92
2022-08-12T17:30:02.097Z,25.83
2022-08-12T17:32:33.359Z,25.71
2022-08-12T17:35:20.236Z,25.61
2022-08-12T17:37:48.025Z,25.49
2022-08-12T17:40:35.242Z,25.39
2022-08-12T17:43:52.222Z,25.33
2022-08-12T17:45:58.938Z,25.29
2022-08-12T17:48:34.982Z,25.23
2022-08-12T17:51:12.041Z,25.17
2022-08-12T17:54:10.709Z,25.09
2022-08-12T17:56:32.295Z,25.02
2022-08-12T17:59:00.501Z,24.94
2022-08-12T18:01:29.514Z,24.88
2022-08-12T18:04:21.942Z,24.80
2022-08-12T18:06:51.646Z,24.70
2022-08-12T18:09:20.348Z,24.62
2022-08-12T18:12:08.293Z,24.56
2022-08-12T18:14:37.112Z,24.47
2022-08-12T18:17:05.781Z,24.39
2022-08-12T18:20:05.656Z,24.31
2022-08-12T18:22:30.843Z,24.22
2022-08-12T18:25:06.548Z,24.15
2022-08-12T18:27:45.604Z,24.09
2022-08-12T18:30:20.490Z,24.02
2022-08-12T18:33:03.882Z,23.93
2022-08-12T18:35:47.318Z,23.84
2022-08-12T18:38:22.076Z,23.74
2022-08-12T18:41:09.835Z,23.65
2022-08-12T18:43:57.570Z,23.58
2022-08-12T18:46:37.528Z,23.48
2022-08-12T18:49:19.010Z,23.40
2022-08-12T18:52:02.635Z,23.29
2022-08-12T18:54:41.516Z,23.20
2022-08-12T18:57:45.857Z,23.11
2022-08-12T19:00:06.316Z,23.02
2022-08-12T19:02:40.182Z,22.95
2022-08-12T19:05:10.322Z,22.87
2022-08-12T19:07:49.944Z,22.78
2022-08-12T19:10:28.022Z,22.71
2022-08-12T19:13:23.483Z,22.63
2022-08-12T19:15:58.070Z,22.56
2022-08-12T19:18:31.868Z,22.50
2022-08-12T19:21:00.221Z,22.44
2022-08-12T19:23:34.868Z,22.40
2022-08-12T19:26:04.585Z,22.35
2022-08-12T19:28:34.447Z,22.31
2022-08-12T19:31:55.465Z,22.26
2022-08-12T19:38:04.398Z,22.14
2022-08-12T19:40:19.981Z,22.09
2022-08-12T19:42:53.871Z,22.05
2022-08-12T19:45:43.765Z,22.03
2022-08-12T19:48:19.576Z,21.98
2022-08-12T19:50:50.280Z,21.94
2022-08-12T19:53:22.762Z,21.88
2022-08-12T19:55:54.262Z,21.85
2022-08-12T19:58:22.459Z,21.80
2022-08-12T20:00:53.267Z,21.75
2022-08-12T20:03:40.649Z,21.70
2022-08-12T20:06:15.277Z,21.66
2022-08-12T20:08:48.752Z,21.64
2022-08-12T20:12:13.335Z,21.62
2022-08-12T20:14:17.727Z,21.59
2022-08-12T20:16:56.399Z,21.56
2022-08-12T20:19:53.047Z,21.52
2022-08-12T20:22:24.837Z,21.47
2022-08-12T20:25:01.661Z,21.41
2022-08-12T20:28:04.499Z,21.36
2022-08-12T20:30:37.922Z,21.31
2022-08-12T20:33:17.301Z,21.25
2022-08-12T20:36:06.742Z,21.20
2022-08-12T20:38:37.766Z,21.15
2022-08-12T20:41:17.561Z,21.11
2022-08-12T20:43:55.135Z,21.06
2022-08-12T20:46:29.001Z,21.02
2022-08-12T20:48:58.863Z,20.97
2022-08-12T20:51:54.624Z,20.93
2022-08-12T20:54:19.081Z,20.89
2022-08-12T20:56:47.622Z,20.86
2022-08-12T20:59:20.203Z,20.82
2022-08-12T21:01:48.792Z,20.78
2022-08-12T21:04:36.356Z,20.74
2022-08-12T21:07:08.228Z,20.71
2022-08-12T21:09:40.712Z,20.69
2022-08-12T21:12:28.334Z,20.67
2022-08-12T21:15:17.233Z,20.61
2022-08-12T21:18:09.362Z,20.57
2022-08-12T21:20:33.911Z,20.54
2022-08-12T21:23:06.354Z,20.53
2022-08-12T21:25:44.077Z,20.52
2022-08-12T21:28:37.676Z,20.51
2022-08-12T21:32:35.306Z,20.48
2022-08-12T21:34:07.186Z,20.46
2022-08-12T21:36:43.351Z,20.43
2022-08-12T21:39:35.325Z,20.40
2022-08-12T21:42:07.260Z,20.36
2022-08-12T21:45:44.323Z,20.33
2022-08-12T21:47:28.778Z,20.29
2022-08-12T21:50:03.973Z,20.24
2022-08-12T21:52:48.902Z,20.20
2022-08-12T21:55:19.009Z,20.15
2022-08-12T21:57:50.717Z,20.10
2022-08-12T22:00:32.326Z,20.05
2022-08-12T22:04:03.524Z,19.99
2022-08-12T22:06:30.692Z,19.93
2022-08-12T22:09:16.622Z,19.86
2022-08-12T22:11:49.130Z,19.80
2022-08-12T22:14:24.006Z,19.74
2022-08-12T22:16:53.113Z,19.69
2022-08-12T22:19:20.977Z,19.64
2022-08-12T22:21:53.271Z,19.58
2022-08-12T22:24:26.348Z,19.52
2022-08-12T22:27:08.199Z,19.46
2022-08-12T22:30:07.095Z,19.39
2022-08-12T22:32:38.138Z,19.36
2022-08-12T22:35:29.420Z,19.33
2022-08-12T22:38:19.376Z,19.29
2022-08-12T22:40:54.927Z,19.26
2022-08-12T22:44:00.897Z,19.23
2022-08-12T22:46:52.545Z,19.19
2022-08-12T22:49:44.771Z,19.15
2022-08-12T22:52:13.518Z,19.10
2022-08-12T22:55:00.203Z,19.06
2022-08-12T22:57:49.150Z,19.01
2022-08-12T23:00:24.148Z,18.97
2022-08-12T23:02:58.437Z,18.92
2022-08-12T23:05:56.736Z,18.89
2022-08-12T23:08:17.629Z,18.86
2022-08-12T23:10:46.577Z,18.84
2022-08-12T23:13:43.360Z,18.81
2022-08-12T23:16:28.405Z,18.79
2022-08-12T23:19:09.644Z,18.76
2022-08-12T23:22:04.241Z,18.74
2022-08-12T23:24:32.469Z,18.72
2022-08-12T23:27:21.680Z,18.70
2022-08-12T23:30:17.325Z,18.69
2022-08-12T23:32:37.098Z,18.67
2022-08-12T23:35:06.561Z,18.67
2022-08-12T23:37:47.073Z,18.66
2022-08-12T23:40:22.275Z,18.66
2022-08-12T23:42:52.064Z,18.65
2022-08-12T23:45:20.470Z,18.64
2022-08-12T23:47:57.926Z,18.62
2022-08-12T23:50:26.351Z,18.61
2022-08-12T23:53:17.329Z,18.60
2022-08-12T23:55:49.573Z,18.58
2022-08-12T23:58:25.711Z,18.56
